Time;durP1;ratioP1;P1;durP2;ratioP2;P2;SDS_P1;SDS_P2;PMS_P1;PMS_P2;Temp;Humidity;BMP_temperature;BMP_pressure;BME280_temperature;BME280_humidity;BME280_pressure;Samples;Min_cycle;Max_cycle;Signal;HPM_P1;HPM_P2
2020/12/14 13:24:20;;;;;;;29.97;22.07;;;;;;;6.78;96.19;94809.72;5069038;28;20555;-76
2020/12/14 13:26:47;;;;;;;22.90;17.80;;;;;;;6.56;96.02;94810.41;5049531;28;20464;-78
2020/12/14 13:29:13;;;;;;;26.80;18.13;;;;;;;6.46;96.31;94814.59;5048764;28;20433;-77
2020/12/14 13:31:40;;;;;;;24.07;18.50;;;;;;;6.42;97.31;94810.56;5047796;28;20442;-77
2020/12/14 13:34:06;;;;;;;16.00;14.03;;;;;;;6.38;96.47;94815.16;5049081;28;20520;-76
2020/12/14 13:36:33;;;;;;;19.77;13.80;;;;;;;6.29;96.90;94818.38;5049036;28;20452;-76
2020/12/14 13:38:59;;;;;;;22.83;16.80;;;;;;;6.25;97.69;94821.31;5048669;28;20449;-76
2020/12/14 13:41:28;;;;;;;24.20;17.37;;;;;;;6.20;98.23;94816.41;5048856;28;20944;-78
2020/12/14 13:43:54;;;;;;;21.93;16.20;;;;;;;6.24;98.92;94824.84;5049011;28;20473;-77
2020/12/14 13:46:21;;;;;;;26.40;17.00;;;;;;;6.26;99.11;94825.56;5013852;28;20933;-78
2020/12/14 13:48:48;;;;;;;19.23;15.30;;;;;;;6.28;99.02;94828.91;5048831;28;20441;-78
2020/12/14 13:51:19;;;;;;;23.83;17.43;;;;;;;6.32;99.16;94830.34;5048669;28;20441;-77
2020/12/14 13:53:45;;;;;;;24.47;18.30;;;;;;;6.35;99.52;94822.31;5048511;28;20454;-76
2020/12/14 13:56:12;;;;;;;31.80;17.83;;;;;;;6.40;98.45;94820.25;5048182;28;20445;-77
2020/12/14 13:58:39;;;;;;;26.30;18.87;;;;;;;6.38;98.90;94824.75;5048765;28;20448;-78
2020/12/14 14:01:05;;;;;;;34.13;22.10;;;;;;;6.38;98.40;94827.34;5048508;28;20451;-77
2020/12/14 14:03:32;;;;;;;31.37;21.73;;;;;;;6.32;98.64;94827.75;5048495;28;20481;-78
2020/12/14 14:05:58;;;;;;;34.77;24.73;;;;;;;6.29;98.78;94823.59;5048901;28;20441;-78
2020/12/14 14:08:25;;;;;;;38.43;29.57;;;;;;;6.25;98.61;94831.72;5048219;28;20443;-78
2020/12/14 14:10:51;;;;;;;39.27;30.57;;;;;;;6.24;98.79;94830.06;5048638;28;20448;-79
2020/12/14 14:13:17;;;;;;;44.67;32.97;;;;;;;6.26;99.90;94833.38;5053378;28;20889;-78
2020/12/14 14:15:46;;;;;;;45.50;33.60;;;;;;;6.29;100.00;94843.59;5033083;28;20445;-78
2020/12/14 14:18:12;;;;;;;35.23;26.80;;;;;;;6.30;99.40;94845.25;5066042;28;20444;-78
2020/12/14 14:20:38;;;;;;;39.73;27.80;;;;;;;6.32;99.68;94852.03;5048382;28;20445;-78
2020/12/14 14:23:05;;;;;;;34.93;24.83;;;;;;;6.36;99.93;94850.03;5012005;28;20485;-79
2020/12/14 14:25:31;;;;;;;60.83;35.10;;;;;;;6.36;99.46;94856.13;5034698;28;20533;-78
2020/12/14 14:27:57;;;;;;;59.30;37.90;;;;;;;6.41;99.62;94855.78;5034635;28;20450;-78
2020/12/14 14:30:24;;;;;;;43.63;31.00;;;;;;;6.38;99.56;94859.44;5034483;28;20972;-79
2020/12/14 14:32:51;;;;;;;31.27;21.70;;;;;;;6.40;99.04;94857.56;5034576;28;20445;-77
2020/12/14 14:35:18;;;;;;;39.60;25.70;;;;;;;6.37;98.96;94860.38;5034916;28;20952;-77
2020/12/14 14:37:45;;;;;;;31.50;20.53;;;;;;;6.25;98.46;94853.41;5033485;28;20443;-78
2020/12/14 14:40:14;;;;;;;34.37;22.40;;;;;;;6.21;98.85;94860.59;5034530;28;20481;-78
2020/12/14 14:42:41;;;;;;;45.17;26.60;;;;;;;6.23;99.76;94860.50;5034441;28;20913;-76
2020/12/14 14:45:08;;;;;;;46.00;30.00;;;;;;;6.22;100.00;94859.66;5033352;28;20440;-77
2020/12/14 14:47:35;;;;;;;32.93;23.20;;;;;;;6.19;100.00;94865.06;5034472;28;21000;-78
2020/12/14 14:50:03;;;;;;;26.93;20.10;;;;;;;6.23;99.69;94870.91;5034673;28;20446;-78
2020/12/14 14:52:30;;;;;;;29.20;20.80;;;;;;;6.18;99.51;94871.22;5032707;28;20453;-77
2020/12/14 14:54:56;;;;;;;36.50;22.30;;;;;;;6.12;99.59;94871.66;5034465;28;20454;-77
2020/12/14 14:57:22;;;;;;;38.10;24.23;;;;;;;6.07;99.54;94876.34;4999201;28;20495;-78
2020/12/14 14:59:49;;;;;;;50.90;29.03;;;;;;;6.05;100.00;94877.34;5034644;28;20941;-82
2020/12/14 15:02:15;;;;;;;48.97;28.80;;;;;;;6.04;100.00;94876.53;5033909;28;20488;-81
2020/12/14 15:04:42;;;;;;;48.13;27.47;;;;;;;5.98;100.00;94873.50;5033193;28;20454;-81
2020/12/14 15:07:09;;;;;;;39.80;25.00;;;;;;;5.90;100.00;94882.66;5034457;28;20468;-79
2020/12/14 15:09:35;;;;;;;27.37;19.33;;;;;;;5.92;100.00;94885.16;5034586;28;20494;-80
2020/12/14 15:12:02;;;;;;;23.60;18.20;;;;;;;5.90;100.00;94889.66;5034440;28;20443;-80
2020/12/14 15:14:28;;;;;;;28.27;18.90;;;;;;;5.90;100.00;94892.25;5048934;28;20532;-79
2020/12/14 15:16:55;;;;;;;26.13;18.20;;;;;;;5.97;100.00;94893.50;5019067;28;20449;-79
2020/12/14 15:19:21;;;;;;;27.60;18.47;;;;;;;5.93;100.00;94892.03;5054000;28;20456;-82
2020/12/14 15:21:50;;;;;;;24.67;17.00;;;;;;;5.83;100.00;94899.59;5054788;28;20841;-86
2020/12/14 15:24:17;;;;;;;31.90;20.63;;;;;;;5.86;100.00;94903.78;5055639;28;20476;-81
2020/12/14 15:26:44;;;;;;;24.53;18.00;;;;;;;5.85;100.00;94902.94;5054104;28;20449;-83
2020/12/14 15:29:10;;;;;;;35.70;20.47;;;;;;;5.72;100.00;94912.47;5054447;28;20472;-87
2020/12/14 15:31:36;;;;;;;25.73;18.30;;;;;;;5.70;100.00;94911.75;5054397;28;20446;-80
2020/12/14 15:34:05;;;;;;;22.67;17.07;;;;;;;5.67;100.00;94911.13;5054107;28;20445;-81
2020/12/14 15:36:31;;;;;;;40.90;25.33;;;;;;;5.67;100.00;94911.94;5053383;28;20933;-79
2020/12/14 15:38:59;;;;;;;50.60;25.90;;;;;;;5.70;100.00;94908.31;5054128;28;20449;-79
2020/12/14 15:41:26;;;;;;;88.47;38.17;;;;;;;5.72;100.00;94914.25;5053822;28;20441;-79
2020/12/14 15:43:53;;;;;;;92.67;41.40;;;;;;;5.68;100.00;94916.22;5053917;28;20515;-79
2020/12/14 15:46:20;;;;;;;95.17;39.70;;;;;;;5.61;100.00;94922.78;5053740;28;20445;-78
2020/12/14 15:48:47;;;;;;;68.33;35.40;;;;;;;5.65;100.00;94923.41;5054069;28;20945;-78
2020/12/14 15:51:14;;;;;;;66.17;32.80;;;;;;;5.58;100.00;94923.81;5053682;28;20445;-79
2020/12/14 15:53:41;;;;;;;45.27;27.30;;;;;;;5.51;100.00;94927.75;5053468;28;20445;-79
2020/12/14 15:56:08;;;;;;;63.47;32.40;;;;;;;5.47;100.00;94933.22;5053805;28;20453;-80
2020/12/14 15:58:35;;;;;;;82.37;41.70;;;;;;;5.45;100.00;94935.91;5053343;28;20433;-79
2020/12/14 16:01:01;;;;;;;75.47;38.03;;;;;;;5.47;100.00;94947.06;5052940;28;20445;-79
2020/12/14 16:03:28;;;;;;;71.77;36.43;;;;;;;5.45;100.00;94941.13;5018084;28;20485;-79
2020/12/14 16:05:54;;;;;;;80.57;39.17;;;;;;;5.48;100.00;94946.13;5053107;28;20453;-79
2020/12/14 16:08:21;;;;;;;90.63;43.17;;;;;;;5.48;100.00;94943.53;5052955;28;20445;-79
2020/12/14 16:10:50;;;;;;;77.67;38.30;;;;;;;5.49;100.00;94946.97;5034176;28;20429;-79
2020/12/14 16:13:16;;;;;;;48.00;28.07;;;;;;;5.43;100.00;94943.00;5052809;28;20971;-78
2020/12/14 16:15:43;;;;;;;37.70;24.27;;;;;;;5.46;100.00;94949.75;5052878;28;20464;-79
2020/12/14 16:18:10;;;;;;;29.30;19.07;;;;;;;5.38;100.00;94950.25;5053375;28;20453;-79
2020/12/14 16:20:36;;;;;;;42.90;24.50;;;;;;;5.46;100.00;94949.75;5053030;28;20456;-78
2020/12/14 16:23:07;;;;;;;33.80;20.93;;;;;;;5.46;100.00;94955.81;5052504;28;20505;-78
2020/12/14 16:25:33;;;;;;;39.50;24.77;;;;;;;5.50;100.00;94959.91;5052700;28;20448;-78
2020/12/14 16:28:00;;;;;;;37.73;26.00;;;;;;;5.56;100.00;94959.50;5052029;28;20446;-79
2020/12/14 16:30:27;;;;;;;37.83;25.10;;;;;;;5.66;100.00;94969.31;5052697;28;20456;-78
2020/12/14 16:32:54;;;;;;;39.50;26.70;;;;;;;5.69;100.00;94967.34;5052655;28;20817;-79
2020/12/14 16:35:20;;;;;;;30.40;23.77;;;;;;;5.79;100.00;94972.81;5052503;28;20821;-81
2020/12/14 16:37:47;;;;;;;39.77;24.60;;;;;;;5.77;100.00;94962.47;5052323;28;20441;-80
2020/12/14 16:40:13;;;;;;;34.73;23.20;;;;;;;5.82;99.93;94975.22;5052689;28;20441;-80
2020/12/14 16:42:39;;;;;;;51.40;29.00;;;;;;;5.86;100.00;94968.88;5017413;28;20485;-78
2020/12/14 16:45:06;;;;;;;44.70;25.50;;;;;;;5.89;99.56;94976.47;5052358;28;20544;-78
2020/12/14 16:47:33;;;;;;;45.67;24.80;;;;;;;5.82;99.29;94976.06;5052146;28;20959;-79
2020/12/14 16:50:01;;;;;;;47.40;24.70;;;;;;;5.79;99.34;94976.25;5033546;28;20471;-80
2020/12/14 16:52:27;;;;;;;36.50;21.10;;;;;;;5.83;99.36;94976.88;5052330;28;20437;-80
2020/12/14 16:54:54;;;;;;;41.77;23.57;;;;;;;5.77;99.97;94982.47;5033482;28;20444;-80
2020/12/14 16:57:20;;;;;;;45.53;23.50;;;;;;;5.71;99.29;94981.09;5052817;28;20448;-81
2020/12/14 16:59:46;;;;;;;41.50;23.80;;;;;;;5.69;99.43;94985.56;5054138;28;20448;-81
2020/12/14 17:02:14;;;;;;;51.00;27.13;;;;;;;5.69;99.96;94988.19;5034384;28;20441;-79
2020/12/14 17:07:25;;;;;;;38.57;21.53;;;;;;;5.64;99.55;94998.06;4992412;28;20439;-81
2020/12/14 17:09:51;;;;;;;28.10;18.47;;;;;;;5.56;100.00;94985.53;4991526;28;20494;-81
2020/12/14 17:12:18;;;;;;;40.75;23.70;;;;;;;5.63;100.00;94995.56;4990454;28;20449;-79
2020/12/14 17:14:44;;;;;;;30.40;20.37;;;;;;;5.60;99.34;95002.63;4991721;28;20440;-80
2020/12/14 17:17:11;;;;;;;34.67;20.00;;;;;;;5.60;99.80;94993.97;4990711;28;20852;-80
2020/12/14 17:19:37;;;;;;;30.23;19.03;;;;;;;5.69;99.90;95000.34;4991310;28;21016;-82
2020/12/14 17:22:04;;;;;;;35.27;20.97;;;;;;;5.67;100.00;95002.22;4990468;28;20453;-79
2020/12/14 17:24:35;;;;;;;42.97;24.50;;;;;;;5.67;100.00;95002.22;4991095;28;20952;-79
2020/12/14 17:27:01;;;;;;;51.87;26.77;;;;;;;5.65;100.00;95004.09;4991144;28;20502;-77
2020/12/14 17:29:28;;;;;;;47.90;27.47;;;;;;;5.67;99.75;95007.44;4990842;28;20450;-80
2020/12/14 17:31:56;;;;;;;49.70;25.33;;;;;;;5.63;99.44;94999.00;4990444;28;20965;-79
2020/12/14 17:34:29;;;;;;;47.23;26.50;;;;;;;5.65;99.88;95014.50;4990752;28;20448;-79
2020/12/14 17:36:55;;;;;;;48.27;23.20;;;;;;;5.62;100.00;95005.13;4990630;28;20451;-79
2020/12/14 17:39:21;;;;;;;53.50;26.70;;;;;;;5.63;100.00;95013.78;4990608;28;20460;-80
2020/12/14 17:41:52;;;;;;;48.23;27.57;;;;;;;5.64;99.69;95012.84;4991117;28;20952;-79
2020/12/14 17:44:19;;;;;;;38.53;19.90;;;;;;;5.61;99.84;95006.06;5014791;28;20481;-79
2020/12/14 17:46:46;;;;;;;40.37;26.17;;;;;;;5.64;99.74;95013.66;5052413;28;20453;-80
2020/12/14 17:49:12;;;;;;;34.70;20.10;;;;;;;5.60;99.62;95018.25;5051840;28;20437;-79
2020/12/14 17:51:39;;;;;;;35.80;21.57;;;;;;;5.54;99.66;95026.44;5051834;28;20445;-78
2020/12/14 17:54:05;;;;;;;35.77;21.63;;;;;;;5.59;99.68;95029.59;5051760;28;20937;-78
2020/12/14 17:56:32;;;;;;;34.07;20.83;;;;;;;5.60;99.85;95033.84;5033045;28;20449;-78
2020/12/14 17:59:00;;;;;;;34.00;20.17;;;;;;;5.59;99.46;95036.56;5052882;28;20453;-79
2020/12/14 18:01:27;;;;;;;35.07;21.70;;;;;;;5.64;100.00;95031.91;5056110;28;20447;-80
2020/12/14 18:03:54;;;;;;;37.80;23.40;;;;;;;5.73;99.96;95038.28;5055603;28;20488;-80
2020/12/14 18:06:24;;;;;;;39.43;23.93;;;;;;;5.72;98.47;95041.81;5055491;28;20522;-80
2020/12/14 18:08:51;;;;;;;41.13;22.67;;;;;;;5.61;98.54;95042.50;5055149;28;20930;-79
2020/12/14 18:11:17;;;;;;;53.00;27.57;;;;;;;5.60;98.61;95039.06;5055473;28;20907;-79
2020/12/14 18:13:43;;;;;;;43.00;25.87;;;;;;;5.65;98.88;95045.75;5055280;28;20824;-80
2020/12/14 18:16:11;;;;;;;30.53;20.27;;;;;;;5.65;98.28;95043.97;5020470;28;20464;-79
2020/12/14 18:18:37;;;;;;;23.20;18.10;;;;;;;5.74;98.90;95050.34;5055134;28;20445;-80
2020/12/14 18:21:03;;;;;;;31.80;19.83;;;;;;;5.77;98.79;95050.16;5055621;28;20445;-80
2020/12/14 18:23:30;;;;;;;25.40;16.83;;;;;;;5.72;98.06;95052.22;5055519;28;20496;-80
2020/12/14 18:25:56;;;;;;;25.53;17.70;;;;;;;5.76;97.97;95048.50;5055867;28;20426;-80
2020/12/14 18:28:22;;;;;;;24.13;17.20;;;;;;;5.84;97.80;95056.69;5011242;28;20510;-79
2020/12/14 18:30:54;;;;;;;38.57;23.17;;;;;;;5.82;97.45;95059.38;5015988;28;20447;-83
2020/12/14 21:23:45;;;;;;;36.80;16.37;;;;;;;5.56;97.10;95162.53;4857819;29;20536;-80
2020/12/14 21:26:13;;;;;;;20.20;15.17;;;;;;;5.42;98.27;95159.91;4896297;29;20965;-79
2020/12/14 21:28:39;;;;;;;23.03;16.87;;;;;;;5.42;97.98;95172.91;4896593;29;20472;-81
2020/12/14 21:31:06;;;;;;;23.53;17.10;;;;;;;5.34;99.42;95163.91;4896745;29;20451;-80
2020/12/14 21:33:33;;;;;;;22.50;14.77;;;;;;;5.34;99.23;95171.72;4875878;29;20442;-81
2020/12/14 21:36:00;;;;;;;26.20;17.87;;;;;;;5.32;99.77;95164.00;4956001;29;20926;-80
2020/12/14 21:38:26;;;;;;;31.93;18.73;;;;;;;5.33;99.13;95177.84;4956590;29;20446;-79
2020/12/14 21:40:52;;;;;;;29.53;17.57;;;;;;;5.30;99.58;95171.06;5021766;28;20956;-80
2020/12/14 21:43:19;;;;;;;36.27;17.53;;;;;;;5.34;99.64;95176.91;5036338;28;20490;-80
2020/12/14 21:45:45;;;;;;;26.07;16.77;;;;;;;5.29;99.46;95177.19;5036156;28;20446;-80
2020/12/14 21:48:12;;;;;;;30.43;17.80;;;;;;;5.26;99.52;95180.81;5036069;28;20473;-79
2020/12/14 21:50:39;;;;;;;23.80;14.40;;;;;;;5.20;99.55;95175.13;5035882;28;20449;-80
2020/12/14 21:53:05;;;;;;;23.07;15.00;;;;;;;5.18;99.45;95171.78;5036694;28;20450;-79
2020/12/14 21:55:32;;;;;;;22.60;14.40;;;;;;;5.16;99.93;95173.63;5036337;28;20454;-80
2020/12/14 21:57:58;;;;;;;21.50;14.30;;;;;;;5.09;99.55;95177.53;5036009;28;20450;-81
2020/12/14 22:00:27;;;;;;;20.93;14.43;;;;;;;5.12;100.00;95178.19;5036203;28;20801;-80
2020/12/14 22:02:53;;;;;;;23.43;15.00;;;;;;;5.09;100.00;95186.16;5035695;28;20485;-80
2020/12/14 22:05:19;;;;;;;25.03;16.50;;;;;;;5.10;100.00;95180.03;5035992;28;20438;-80
2020/12/14 22:07:47;;;;;;;21.27;14.90;;;;;;;5.07;99.92;95184.59;5035339;28;20453;-78
2020/12/14 22:10:13;;;;;;;21.73;14.67;;;;;;;5.01;100.00;95179.75;5035890;28;20452;-80
2020/12/14 22:12:40;;;;;;;22.30;12.87;;;;;;;4.98;100.00;95179.00;5000778;28;20442;-85
2020/12/14 22:15:06;;;;;;;21.33;14.73;;;;;;;4.98;100.00;95184.19;5035695;28;20456;-79
2020/12/14 22:17:32;;;;;;;25.30;15.73;;;;;;;4.95;100.00;95175.75;5035414;28;20930;-79
2020/12/14 22:19:59;;;;;;;20.20;14.03;;;;;;;4.98;100.00;95179.00;5035319;28;20434;-79
2020/12/14 22:22:25;;;;;;;26.00;14.03;;;;;;;4.98;100.00;95181.59;5035033;28;20481;-79
2020/12/14 22:24:52;;;;;;;22.77;12.80;;;;;;;5.01;100.00;95184.94;5034985;28;20837;-79
2020/12/14 22:27:18;;;;;;;25.60;15.90;;;;;;;5.04;100.00;95184.75;5035082;28;20938;-79
2020/12/14 22:29:45;;;;;;;29.60;19.00;;;;;;;5.03;100.00;95177.88;5034974;28;20450;-78
2020/12/14 22:32:11;;;;;;;24.87;15.20;;;;;;;5.08;100.00;95176.69;5035315;28;20811;-79
2020/12/14 22:34:37;;;;;;;29.10;14.57;;;;;;;5.19;100.00;95187.28;5034947;28;20457;-80
2020/12/14 22:37:04;;;;;;;25.17;15.50;;;;;;;5.15;100.00;95184.97;5034474;28;20849;-79
2020/12/14 22:39:30;;;;;;;24.47;16.50;;;;;;;5.09;100.00;95180.97;5035410;28;20930;-80
2020/12/14 22:41:57;;;;;;;25.70;16.63;;;;;;;5.13;100.00;95189.41;5000395;28;20438;-79
2020/12/14 22:44:24;;;;;;;24.80;15.80;;;;;;;5.13;100.00;95184.22;5034233;28;20486;-79
2020/12/14 22:46:50;;;;;;;21.37;14.57;;;;;;;5.21;100.00;95184.63;5034865;28;20435;-79
2020/12/14 22:49:16;;;;;;;24.97;14.90;;;;;;;5.18;100.00;95187.38;5034875;28;20446;-79
2020/12/14 22:51:43;;;;;;;24.20;15.27;;;;;;;5.19;100.00;95189.06;5016247;28;20438;-79
2020/12/14 22:54:09;;;;;;;21.90;14.93;;;;;;;5.19;99.82;95189.88;5034552;28;20916;-79
2020/12/14 22:56:35;;;;;;;23.80;14.33;;;;;;;5.28;100.00;95191.13;5034862;28;20452;-79
2020/12/14 22:59:03;;;;;;;17.33;11.60;;;;;;;5.31;100.00;95177.94;5034673;28;20440;-79
2020/12/14 23:01:29;;;;;;;18.97;14.10;;;;;;;5.35;99.47;95186.41;5034567;28;20453;-80
2020/12/14 23:03:55;;;;;;;19.50;13.57;;;;;;;5.38;99.86;95187.03;5034329;28;20834;-80
2020/12/14 23:06:22;;;;;;;19.43;13.27;;;;;;;5.39;99.18;95193.91;5034134;28;20454;-78
2020/12/14 23:08:48;;;;;;;18.87;12.30;;;;;;;5.37;99.66;95182.78;5034514;28;20446;-78
2020/12/14 23:11:14;;;;;;;19.97;13.00;;;;;;;5.41;99.07;95181.66;5034340;28;20446;-78
2020/12/14 23:13:41;;;;;;;21.77;12.30;;;;;;;5.39;98.68;95193.09;5034228;28;20430;-79
2020/12/14 23:16:08;;;;;;;22.60;14.47;;;;;;;5.39;98.91;95186.13;5034477;28;20461;-79
2020/12/14 23:18:34;;;;;;;20.93;13.20;;;;;;;5.38;99.45;95181.84;5034550;28;20446;-78
2020/12/14 23:21:01;;;;;;;17.67;13.83;;;;;;;5.33;99.06;95178.69;5034518;28;20452;-78
2020/12/14 23:23:27;;;;;;;19.13;13.00;;;;;;;5.43;98.93;95182.41;5034018;28;20673;-79
2020/12/14 23:25:53;;;;;;;18.27;13.00;;;;;;;5.45;98.36;95188.34;5034801;28;20453;-79
2020/12/14 23:28:20;;;;;;;18.30;12.73;;;;;;;5.41;98.12;95189.47;5034807;28;20453;-79
2020/12/14 23:30:46;;;;;;;13.60;11.20;;;;;;;5.39;97.93;95186.13;5034685;28;20810;-79
2020/12/14 23:33:14;;;;;;;23.60;13.07;;;;;;;5.38;98.29;95181.84;5015603;28;20469;-80
2020/12/14 23:35:40;;;;;;;17.20;11.70;;;;;;;5.27;98.05;95192.06;5034049;28;20457;-79
2020/12/14 23:38:06;;;;;;;18.00;12.87;;;;;;;5.33;98.07;95191.69;5034018;28;20434;-80
2020/12/14 23:40:32;;;;;;;17.73;12.87;;;;;;;5.32;98.47;95187.41;5034037;28;20445;-79
2020/12/14 23:42:59;;;;;;;23.07;13.80;;;;;;;5.27;97.95;95179.06;5034029;28;20465;-80
2020/12/14 23:45:25;;;;;;;19.77;12.53;;;;;;;5.26;98.03;95195.59;5033506;28;20442;-79
2020/12/14 23:47:52;;;;;;;21.07;12.43;;;;;;;5.15;99.32;95198.81;5033630;28;20438;-79
2020/12/14 23:50:19;;;;;;;19.47;12.43;;;;;;;5.13;98.92;95194.63;5033942;28;20434;-79
2020/12/14 23:52:45;;;;;;;20.90;13.10;;;;;;;5.11;99.58;95201.69;5033731;28;20449;-79
2020/12/14 23:55:12;;;;;;;19.73;12.93;;;;;;;5.12;98.88;95201.59;5033728;28;20443;-79
2020/12/14 23:57:38;;;;;;;22.97;14.73;;;;;;;5.07;99.71;95192.38;5032674;28;20439;-79
